Hlavní strana
METAR-TAF:

METAR-TAF

Letiště :

Creston, Iowa, Spojené státy americké

zeměpisná šířka: 41-01N, zeměpisná délka: 094-22W, výška: 394 m

Aktuální stav počasí

Zpráva byla vytvořena před 5 minutami, v 09:35 UTC
Severovýchodní vítr 16 kt
Teplota 1°C
Vlhkost vzduchu 80%
Tlak 1011 hPa
Viditelnost: 16.1 km
Zataženo ve výšce 12000 ft

METAR: KCSQ 240935Z AUTO 04016KT 10SM OVC120 01/M02 A2985 RMK AO2

Čas: 03:40 (09:40 UTC)


TAF: chybějící

Stav a předpovědi počasí z více než 4 000 letišť (zprávy METAR a TAF).

Červené a žluté tečky na mapě představují dostupné meteorologické stanice.

Když kurzor umístíte na tečku, zobrazí se název stanice.

Pak kliknutím zobrazíte stav a předpověď počasí.

Chcete-li změnit mapu, kliknutím na zelené tlačítko se znaménkem +mapu přiblížíte, kliknutím na zelené tlačítko se znaménkem – mapu oddálíte a kliknutím na zelené šipky přejdete na sousední mapy.


METAR-TAF: